Time;durP1;ratioP1;P1;durP2;ratioP2;P2;SDS_P1;SDS_P2;PMS_P1;PMS_P2;Temp;Humidity;BMP_temperature;BMP_pressure;BME280_temperature;BME280_humidity;BME280_pressure;Samples;Min_cycle;Max_cycle;Signal;HPM_P1;HPM_P2
2022/03/10 00:00:08;;;;;;;20.45;7.88;;;-2.10;99.90;;;;;;5080221;28;20048;-67
2022/03/10 00:02:34;;;;;;;17.17;7.78;;;-2.10;99.90;;;;;;5071737;28;20033;-67
2022/03/10 00:05:00;;;;;;;18.45;8.30;;;-2.10;99.90;;;;;;5067882;28;20059;-67
2022/03/10 00:07:26;;;;;;;17.45;8.05;;;-2.10;99.90;;;;;;5063438;28;20029;-67
2022/03/10 00:09:51;;;;;;;20.33;8.85;;;-2.00;99.90;;;;;;5070985;28;20391;-67
2022/03/10 00:12:18;;;;;;;21.67;8.68;;;-1.90;99.90;;;;;;5064974;28;20036;-67
2022/03/10 00:14:43;;;;;;;25.20;11.10;;;-1.80;99.90;;;;;;5071675;28;20347;-67
2022/03/10 00:17:09;;;;;;;19.80;9.52;;;-1.60;99.90;;;;;;5066408;28;20037;-67
2022/03/10 00:19:34;;;;;;;25.10;11.38;;;-1.60;99.90;;;;;;5078706;28;20479;-67
2022/03/10 00:22:00;;;;;;;26.92;10.45;;;-1.40;99.90;;;;;;5067304;28;20028;-67
2022/03/10 00:24:25;;;;;;;15.45;7.97;;;-1.40;99.90;;;;;;5077054;28;20108;-67
2022/03/10 00:26:51;;;;;;;18.45;8.32;;;-1.50;99.90;;;;;;5069125;28;20082;-67
2022/03/10 00:29:16;;;;;;;23.08;10.43;;;-1.50;99.90;;;;;;5066200;28;20035;-68
2022/03/10 00:31:42;;;;;;;26.80;11.73;;;-1.40;99.90;;;;;;5070850;28;20543;-68
2022/03/10 00:34:08;;;;;;;23.52;11.70;;;-1.10;99.90;;;;;;5073717;28;20041;-67
2022/03/10 00:36:34;;;;;;;21.85;9.82;;;-1.10;99.90;;;;;;5064289;28;20409;-67
2022/03/10 00:38:59;;;;;;;23.48;10.88;;;-1.10;99.90;;;;;;5065770;28;20041;-67
2022/03/10 00:41:25;;;;;;;23.08;11.35;;;-1.00;99.90;;;;;;5083251;28;20051;-67
2022/03/10 00:43:50;;;;;;;23.90;10.98;;;-1.00;99.90;;;;;;5076829;28;20109;-67
2022/03/10 00:46:16;;;;;;;27.85;12.63;;;-1.00;99.90;;;;;;5069463;28;20039;-67
2022/03/10 00:48:41;;;;;;;23.67;10.30;;;-1.00;99.90;;;;;;5072846;28;20021;-68
2022/03/10 00:51:07;;;;;;;22.27;9.65;;;-1.10;99.90;;;;;;5068435;28;20588;-68
2022/03/10 00:53:34;;;;;;;19.02;9.32;;;-1.20;99.90;;;;;;5067314;28;20043;-67
2022/03/10 00:55:59;;;;;;;21.88;9.85;;;-1.30;99.90;;;;;;5066591;28;20046;-67
2022/03/10 00:58:25;;;;;;;24.13;10.73;;;-1.30;99.90;;;;;;5067544;28;20021;-67
2022/03/10 01:00:53;;;;;;;22.85;10.40;;;-1.40;99.90;;;;;;5067401;28;20198;-67
2022/03/10 01:03:19;;;;;;;18.95;8.98;;;-1.40;99.90;;;;;;5076035;28;20056;-67
2022/03/10 01:05:45;;;;;;;26.30;11.05;;;-1.40;99.90;;;;;;5066193;28;20492;-67
2022/03/10 01:08:11;;;;;;;21.52;10.32;;;-1.40;99.90;;;;;;5063594;28;20098;-67
2022/03/10 01:10:37;;;;;;;23.83;9.98;;;-1.50;99.90;;;;;;5074017;28;20035;-67
2022/03/10 01:13:03;;;;;;;29.13;12.30;;;-1.50;99.90;;;;;;5066763;28;20040;-67
2022/03/10 01:15:29;;;;;;;27.30;11.82;;;-1.50;99.90;;;;;;5074688;28;20043;-67
2022/03/10 01:17:56;;;;;;;19.60;9.77;;;-1.50;99.90;;;;;;5070937;28;20051;-67
2022/03/10 01:20:23;;;;;;;24.92;9.82;;;-1.60;99.90;;;;;;5076789;28;20029;-67
2022/03/10 01:22:50;;;;;;;21.63;9.30;;;-1.70;99.90;;;;;;5077988;28;20070;-67
2022/03/10 01:25:16;;;;;;;22.23;9.43;;;-1.70;99.90;;;;;;5076652;28;20074;-68
2022/03/10 01:27:42;;;;;;;22.92;9.65;;;-1.80;99.90;;;;;;5067654;28;20036;-68
2022/03/10 01:30:09;;;;;;;24.65;10.82;;;-1.70;99.90;;;;;;5075164;28;20551;-68
2022/03/10 01:32:35;;;;;;;25.70;10.40;;;-1.70;99.90;;;;;;5073892;28;20043;-68
2022/03/10 01:35:05;;;;;;;20.45;10.15;;;-1.70;99.90;;;;;;5067107;28;20032;-68
2022/03/10 01:37:32;;;;;;;22.63;10.32;;;-1.80;99.90;;;;;;5053289;28;20032;-67
2022/03/10 01:39:58;;;;;;;21.02;8.70;;;-1.70;99.90;;;;;;5068307;28;20032;-67
2022/03/10 01:42:24;;;;;;;28.25;11.32;;;-1.70;99.90;;;;;;5073052;28;20462;-67
2022/03/10 01:44:53;;;;;;;22.40;9.82;;;-1.80;99.90;;;;;;5072864;28;20067;-67
2022/03/10 01:47:19;;;;;;;27.90;10.07;;;-1.80;99.90;;;;;;5065722;28;20110;-67
2022/03/10 01:49:44;;;;;;;20.30;9.60;;;-1.90;99.90;;;;;;5068346;28;20024;-67
2022/03/10 01:52:10;;;;;;;26.45;10.75;;;-2.00;99.90;;;;;;5073226;28;20098;-67
2022/03/10 01:54:36;;;;;;;22.00;9.35;;;-2.10;99.90;;;;;;5076898;28;20036;-68
2022/03/10 01:57:02;;;;;;;26.67;10.52;;;-2.20;99.90;;;;;;5066982;28;20715;-67
2022/03/10 01:59:28;;;;;;;26.90;10.98;;;-2.30;99.90;;;;;;5062551;28;20056;-68
2022/03/10 02:01:53;;;;;;;20.15;8.93;;;-2.30;99.90;;;;;;5076720;28;20040;-67
2022/03/10 02:04:19;;;;;;;21.63;8.50;;;-2.30;99.90;;;;;;5064391;28;20480;-67
2022/03/10 02:06:45;;;;;;;23.80;10.70;;;-2.40;99.90;;;;;;5085504;28;20205;-65
2022/03/10 02:11:55;;;;;;;18.83;7.80;;;-2.30;99.90;;;;;;5047923;28;20416;-67
2022/03/10 02:17:19;;;;;;;30.25;10.57;;;-2.30;99.90;;;;;;5048125;28;20032;-67
2022/03/10 02:19:52;;;;;;;29.67;10.82;;;-2.40;99.90;;;;;;5050793;28;20029;-68
2022/03/10 02:22:20;;;;;;;21.90;9.98;;;-2.50;99.90;;;;;;5053114;28;20224;-67
2022/03/10 02:24:46;;;;;;;22.45;9.43;;;-2.40;99.90;;;;;;5092022;28;20480;-66
2022/03/10 02:27:16;;;;;;;22.52;9.73;;;-2.40;99.90;;;;;;5082131;28;20035;-67
2022/03/10 02:29:43;;;;;;;19.73;9.77;;;-2.40;99.90;;;;;;5071757;28;20193;-67
2022/03/10 02:32:10;;;;;;;20.83;9.30;;;-2.40;99.90;;;;;;5089450;28;20032;-67
2022/03/10 02:34:36;;;;;;;24.90;11.93;;;-2.40;99.90;;;;;;5092091;28;20026;-67
2022/03/10 02:37:01;;;;;;;26.13;10.77;;;-2.40;99.90;;;;;;5091927;28;20028;-67
2022/03/10 02:39:27;;;;;;;22.35;9.85;;;-2.40;99.90;;;;;;5070557;28;20044;-67
2022/03/10 02:41:52;;;;;;;25.30;11.98;;;-2.40;99.90;;;;;;5090933;28;20027;-67
2022/03/10 02:44:18;;;;;;;29.80;12.80;;;-2.30;99.90;;;;;;5071775;28;20058;-67
2022/03/10 02:46:43;;;;;;;27.40;12.13;;;-2.30;99.90;;;;;;5090941;28;20560;-67
2022/03/10 02:49:09;;;;;;;21.88;10.95;;;-2.20;99.90;;;;;;5073185;28;20059;-67
2022/03/10 02:51:34;;;;;;;27.95;12.43;;;-2.20;99.90;;;;;;5091033;28;20111;-67
2022/03/10 02:54:00;;;;;;;26.70;11.05;;;-2.20;99.90;;;;;;5073930;28;20358;-67
2022/03/10 02:56:25;;;;;;;24.08;11.65;;;-2.20;99.90;;;;;;5090957;28;20107;-67
2022/03/10 02:58:50;;;;;;;27.95;11.95;;;-2.20;99.90;;;;;;5075119;28;20094;-67
2022/03/10 03:01:16;;;;;;;29.33;13.75;;;-2.20;99.90;;;;;;5090795;28;20408;-67
2022/03/10 03:03:41;;;;;;;29.50;12.55;;;-2.20;99.90;;;;;;5076271;28;20037;-67
2022/03/10 03:06:07;;;;;;;27.90;12.32;;;-2.10;99.90;;;;;;5090838;28;20063;-67
2022/03/10 03:08:34;;;;;;;25.33;11.40;;;-2.00;99.90;;;;;;5077457;28;20037;-67
2022/03/10 03:10:59;;;;;;;30.70;13.45;;;-2.00;99.90;;;;;;5090655;28;20028;-67
2022/03/10 03:13:25;;;;;;;33.00;13.85;;;-2.00;99.90;;;;;;5089443;28;20488;-67
2022/03/10 03:15:50;;;;;;;30.33;12.02;;;-1.90;99.90;;;;;;5091034;28;20028;-67
2022/03/10 03:18:16;;;;;;;30.55;13.48;;;-1.90;99.90;;;;;;5089156;28;20031;-67
2022/03/10 03:20:42;;;;;;;33.30;16.23;;;-1.90;99.90;;;;;;5090973;28;20411;-67
2022/03/10 03:23:07;;;;;;;32.78;15.18;;;-1.70;99.90;;;;;;5089087;28;20435;-67
2022/03/10 03:25:33;;;;;;;28.15;13.15;;;-1.70;99.90;;;;;;5090651;28;20052;-67
2022/03/10 03:27:58;;;;;;;38.92;15.85;;;-1.70;99.90;;;;;;5081850;28;20032;-67
2022/03/10 03:30:23;;;;;;;31.50;13.68;;;-1.60;99.90;;;;;;5090095;28;20077;-67
2022/03/10 03:32:49;;;;;;;33.42;14.65;;;-1.60;99.90;;;;;;5088630;28;20074;-67
2022/03/10 03:35:15;;;;;;;32.35;14.23;;;-1.60;99.90;;;;;;5091082;28;20058;-67
2022/03/10 03:37:40;;;;;;;35.72;15.02;;;-1.60;99.90;;;;;;5088751;28;20036;-67
2022/03/10 03:40:07;;;;;;;31.20;14.32;;;-1.60;99.90;;;;;;5091098;28;20028;-67
2022/03/10 03:42:34;;;;;;;34.45;16.30;;;-1.70;99.90;;;;;;5088559;28;20035;-68
2022/03/10 03:45:00;;;;;;;40.13;16.55;;;-1.60;99.90;;;;;;5090857;28;20032;-67
2022/03/10 03:47:26;;;;;;;43.80;18.13;;;-1.70;99.90;;;;;;5088744;28;20052;-68
2022/03/10 03:49:51;;;;;;;36.38;15.70;;;-1.60;99.90;;;;;;5090382;28;20524;-67
2022/03/10 03:52:17;;;;;;;44.78;17.73;;;-1.60;99.90;;;;;;5088543;28;20035;-67
2022/03/10 03:54:43;;;;;;;40.78;18.10;;;-1.50;99.90;;;;;;5090368;28;20031;-67
2022/03/10 03:57:08;;;;;;;41.15;17.17;;;-1.50;99.90;;;;;;5088287;28;20418;-66
2022/03/10 03:59:34;;;;;;;37.92;15.98;;;-1.40;99.90;;;;;;5090474;28;20032;-67
2022/03/10 04:01:59;;;;;;;44.03;18.90;;;-1.50;99.90;;;;;;5090154;28;20487;-67
2022/03/10 04:04:25;;;;;;;37.25;16.50;;;-1.50;99.90;;;;;;5069439;28;20032;-67
2022/03/10 04:06:50;;;;;;;39.90;17.58;;;-1.50;99.90;;;;;;5089353;28;20024;-67
2022/03/10 04:09:16;;;;;;;37.92;15.73;;;-1.40;99.90;;;;;;5070398;28;20025;-67
2022/03/10 04:11:42;;;;;;;37.42;17.15;;;-1.50;99.90;;;;;;5089297;28;20475;-67
2022/03/10 04:14:10;;;;;;;36.60;15.80;;;-1.50;99.90;;;;;;5071359;28;20051;-68
2022/03/10 04:16:35;;;;;;;33.50;14.75;;;-1.60;99.90;;;;;;5089683;28;20407;-67
2022/03/10 04:19:01;;;;;;;36.33;16.95;;;-1.60;99.90;;;;;;5072253;28;20232;-67
2022/03/10 04:21:26;;;;;;;39.88;17.33;;;-1.60;99.90;;;;;;5089360;28;20406;-67
2022/03/10 04:23:52;;;;;;;48.70;21.17;;;-1.60;99.90;;;;;;5074611;28;20036;-68
2022/03/10 04:26:17;;;;;;;44.97;19.50;;;-1.60;99.90;;;;;;5089401;28;20403;-66
2022/03/10 04:28:43;;;;;;;42.67;19.23;;;-1.60;99.90;;;;;;5071903;28;20031;-67
2022/03/10 04:31:09;;;;;;;42.25;18.33;;;-1.60;99.90;;;;;;5089236;28;20507;-67
2022/03/10 04:33:34;;;;;;;40.85;18.30;;;-1.60;99.90;;;;;;5075506;28;20072;-67
2022/03/10 04:36:00;;;;;;;46.70;20.35;;;-1.60;99.90;;;;;;5088884;28;20286;-67
2022/03/10 04:38:25;;;;;;;41.28;18.55;;;-1.60;99.90;;;;;;5087577;28;20051;-67
2022/03/10 04:40:50;;;;;;;33.55;15.60;;;-1.60;99.90;;;;;;5089252;28;20293;-67
2022/03/10 04:43:16;;;;;;;36.90;15.68;;;-1.60;99.90;;;;;;5087384;28;20193;-67
2022/03/10 04:45:42;;;;;;;41.67;18.33;;;-1.80;99.90;;;;;;5089271;28;20399;-67
2022/03/10 04:48:07;;;;;;;44.38;18.17;;;-1.80;99.90;;;;;;5087457;28;20085;-67
2022/03/10 04:50:33;;;;;;;39.42;18.52;;;-1.80;99.90;;;;;;5089265;28;20024;-68
2022/03/10 04:52:59;;;;;;;46.90;19.00;;;-1.80;99.90;;;;;;5087246;28;20235;-67
2022/03/10 04:55:24;;;;;;;46.42;17.88;;;-1.80;99.90;;;;;;5089416;28;20024;-67
2022/03/10 04:57:50;;;;;;;37.63;15.50;;;-1.80;99.90;;;;;;5083919;28;20110;-66
2022/03/10 05:00:18;;;;;;;40.70;19.73;;;-1.90;99.90;;;;;;5086096;28;20048;-66
2022/03/10 05:02:45;;;;;;;39.28;16.55;;;-1.90;99.90;;;;;;5086845;28;20373;-67
2022/03/10 05:05:13;;;;;;;35.63;17.20;;;-1.90;99.90;;;;;;5089284;28;20031;-67
2022/03/10 05:07:39;;;;;;;38.03;17.85;;;-1.80;99.90;;;;;;5089206;28;20020;-67
2022/03/10 05:10:05;;;;;;;42.10;17.95;;;-1.80;99.90;;;;;;5087080;28;20038;-68
2022/03/10 05:12:30;;;;;;;43.75;20.13;;;-1.80;99.90;;;;;;5088954;28;20051;-66
2022/03/10 05:14:56;;;;;;;42.50;19.05;;;-1.80;99.90;;;;;;5067973;28;20038;-66
2022/03/10 05:17:23;;;;;;;36.25;16.67;;;-1.80;99.90;;;;;;5088156;28;20036;-66
2022/03/10 05:19:52;;;;;;;41.83;16.70;;;-1.80;99.90;;;;;;5069221;28;20607;-65
2022/03/10 05:22:18;;;;;;;39.75;17.00;;;-1.90;99.90;;;;;;5088750;28;20103;-66
2022/03/10 05:24:44;;;;;;;37.28;16.27;;;-1.90;99.90;;;;;;5078335;28;20282;-66
2022/03/10 05:27:10;;;;;;;37.75;15.35;;;-1.90;99.90;;;;;;5081849;28;20502;-65
2022/03/10 05:29:40;;;;;;;33.38;14.77;;;-2.00;99.90;;;;;;5086950;28;20063;-65
2022/03/10 05:32:08;;;;;;;48.03;18.67;;;-2.00;99.90;;;;;;5048757;28;20025;-66
2022/03/10 05:34:34;;;;;;;41.40;18.08;;;-2.00;99.90;;;;;;5070470;28;20059;-65
2022/03/10 05:36:59;;;;;;;38.40;14.63;;;-2.00;99.90;;;;;;5087929;28;20066;-65
2022/03/10 05:39:25;;;;;;;44.53;17.40;;;-2.00;99.90;;;;;;5071927;28;20040;-65
2022/03/10 05:41:50;;;;;;;41.30;16.02;;;-2.00;99.90;;;;;;5087948;28;20044;-65
2022/03/10 05:44:16;;;;;;;37.42;17.05;;;-2.00;99.90;;;;;;5073455;28;20505;-65
2022/03/10 05:46:41;;;;;;;39.00;17.25;;;-2.00;99.90;;;;;;5087786;28;20024;-65
2022/03/10 05:49:07;;;;;;;36.45;17.60;;;-1.90;99.90;;;;;;5074528;28;20416;-65
2022/03/10 05:51:36;;;;;;;41.25;16.48;;;-1.80;99.90;;;;;;5074140;28;20326;-66
2022/03/10 05:54:02;;;;;;;41.95;16.65;;;-1.80;99.90;;;;;;5091984;28;20040;-65
2022/03/10 05:56:27;;;;;;;40.58;17.00;;;-1.60;99.90;;;;;;5093041;28;20158;-66
2022/03/10 05:58:53;;;;;;;37.85;16.88;;;-1.60;99.90;;;;;;5095135;28;20103;-65
2022/03/10 06:01:18;;;;;;;38.05;16.85;;;-1.50;99.90;;;;;;5093034;28;20027;-66
2022/03/10 06:03:44;;;;;;;39.08;18.08;;;-1.40;99.90;;;;;;5095129;28;20352;-66
2022/03/10 06:06:13;;;;;;;38.15;15.70;;;-1.30;99.90;;;;;;5093016;28;20024;-66
2022/03/10 06:08:39;;;;;;;44.65;17.48;;;-1.20;99.90;;;;;;5095473;28;20024;-66
2022/03/10 06:11:07;;;;;;;30.27;15.15;;;-1.10;99.90;;;;;;5092994;28;20024;-66
2022/03/10 06:13:33;;;;;;;37.20;15.88;;;-0.80;99.90;;;;;;5093086;28;20514;-67
2022/03/10 06:16:38;;;;;;;36.90;16.75;;;-0.30;99.90;;;;;;5095064;28;20028;-67
2022/03/10 06:20:03;;;;;;;36.53;16.85;;;0.70;99.90;;;;;;5080038;28;20055;-67
2022/03/10 06:23:29;;;;;;;35.30;15.43;;;3.30;99.90;;;;;;5073103;28;20045;-67
2022/03/10 06:26:54;;;;;;;32.05;14.95;;;5.10;99.90;;;;;;5083045;28;20527;-67
2022/03/10 06:30:19;;;;;;;29.77;14.43;;;6.80;99.90;;;;;;5091459;28;20085;-68
2022/03/10 06:33:45;;;;;;;31.75;15.20;;;8.00;74.50;;;;;;5071040;28;20527;-66
2022/03/10 06:37:10;;;;;;;27.85;14.75;;;9.20;60.30;;;;;;5088105;28;20036;-69
2022/03/10 06:40:35;;;;;;;26.23;13.65;;;9.90;45.80;;;;;;5075094;28;20040;-68
2022/03/10 06:44:01;;;;;;;29.42;15.27;;;10.90;42.80;;;;;;5088078;28;20032;-64
2022/03/10 06:47:27;;;;;;;27.70;13.35;;;12.00;36.00;;;;;;5093769;28;20028;-68
2022/03/10 06:50:52;;;;;;;30.52;13.85;;;12.60;29.40;;;;;;5081955;28;20036;-71
2022/03/10 06:54:17;;;;;;;26.08;14.18;;;13.50;31.10;;;;;;5080507;28;20082;-68
2022/03/10 06:57:42;;;;;;;30.98;16.10;;;13.70;29.70;;;;;;5093046;28;20036;-69
2022/03/10 07:01:08;;;;;;;33.28;17.30;;;13.60;24.50;;;;;;5070263;28;20106;-66
2022/03/10 07:04:33;;;;;;;30.55;15.65;;;13.80;23.20;;;;;;5087895;28;20028;-70
2022/03/10 07:07:58;;;;;;;27.02;15.73;;;13.80;21.50;;;;;;5090150;28;20544;-66
2022/03/10 07:11:25;;;;;;;29.08;15.30;;;13.60;20.80;;;;;;5067435;28;20047;-67
2022/03/10 07:14:49;;;;;;;30.70;15.73;;;14.50;22.30;;;;;;5083923;28;20534;-68
2022/03/10 07:18:14;;;;;;;23.15;14.05;;;14.60;19.40;;;;;;5050248;28;20035;-68
2022/03/10 07:21:40;;;;;;;26.52;13.88;;;15.10;19.60;;;;;;5079370;28;20036;-68
2022/03/10 07:25:05;;;;;;;28.92;15.82;;;15.60;18.60;;;;;;5068084;28;20037;-68
2022/03/10 07:28:31;;;;;;;26.80;15.35;;;15.30;18.00;;;;;;5077459;28;20039;-68
2022/03/10 07:31:56;;;;;;;27.92;16.17;;;14.90;16.90;;;;;;5086157;28;20502;-69
2022/03/10 07:35:21;;;;;;;28.65;15.40;;;14.80;17.80;;;;;;5072966;28;20033;-68
2022/03/10 07:38:47;;;;;;;26.88;15.15;;;14.60;18.30;;;;;;5083353;28;20765;-67
2022/03/10 07:42:12;;;;;;;25.30;14.45;;;15.60;18.30;;;;;;5086066;28;20074;-67
2022/03/10 07:45:37;;;;;;;26.30;14.85;;;16.30;16.70;;;;;;5063292;28;20060;-67
2022/03/10 07:49:04;;;;;;;34.38;18.75;;;15.90;15.80;;;;;;5083900;28;20081;-67
2022/03/10 07:52:28;;;;;;;28.35;16.13;;;15.20;17.20;;;;;;5088917;28;20032;-67
2022/03/10 07:55:56;;;;;;;29.05;16.73;;;15.60;16.90;;;;;;5078457;28;20427;-66
2022/03/10 07:59:19;;;;;;;27.38;16.00;;;15.50;17.00;;;;;;5081713;28;20032;-67
2022/03/10 08:02:44;;;;;;;26.73;16.73;;;15.10;18.90;;;;;;5049265;28;20068;-65
2022/03/10 08:06:09;;;;;;;29.00;15.60;;;15.40;18.50;;;;;;5064707;28;20028;-68
2022/03/10 08:09:35;;;;;;;25.42;16.23;;;15.40;18.40;;;;;;5081546;28;20166;-68
2022/03/10 08:13:00;;;;;;;33.90;18.20;;;15.40;19.40;;;;;;5078066;28;20384;-69
2022/03/10 08:16:26;;;;;;;32.33;18.00;;;14.70;20.70;;;;;;5085577;28;20036;-68
2022/03/10 08:19:51;;;;;;;26.38;16.15;;;14.50;19.80;;;;;;5083381;28;20522;-69
2022/03/10 08:23:18;;;;;;;33.58;17.10;;;14.70;20.60;;;;;;5083042;28;20034;-73
2022/03/10 08:26:43;;;;;;;27.38;15.65;;;14.40;20.50;;;;;;5084597;28;20044;-69
2022/03/10 08:30:07;;;;;;;27.05;16.10;;;13.90;20.80;;;;;;5082684;28;20154;-69
2022/03/10 08:33:32;;;;;;;22.15;14.68;;;14.40;22.00;;;;;;5084954;28;20074;-68
2022/03/10 08:36:58;;;;;;;25.90;16.05;;;14.00;22.00;;;;;;5077633;28;20492;-68
2022/03/10 08:40:23;;;;;;;30.27;17.55;;;15.00;21.00;;;;;;5069506;28;20115;-66
2022/03/10 08:43:48;;;;;;;26.52;14.75;;;14.50;20.40;;;;;;5048655;28;20405;-66
2022/03/10 08:47:14;;;;;;;28.25;16.92;;;14.80;21.10;;;;;;5056775;28;20043;-67
2022/03/10 08:50:40;;;;;;;24.60;15.02;;;14.50;21.60;;;;;;5067405;28;20573;-68
2022/03/10 08:54:05;;;;;;;23.85;15.70;;;14.60;21.40;;;;;;5082450;28;20064;-70
2022/03/10 08:57:30;;;;;;;28.88;16.83;;;14.90;20.10;;;;;;5048375;28;20087;-69
2022/03/10 09:00:55;;;;;;;26.98;16.10;;;14.40;21.70;;;;;;5082045;28;20036;-68
2022/03/10 09:04:21;;;;;;;23.75;14.45;;;15.10;21.20;;;;;;5072398;28;20090;-69
2022/03/10 09:07:46;;;;;;;24.02;15.63;;;15.70;18.80;;;;;;5085392;28;20500;-69
2022/03/10 09:11:11;;;;;;;27.13;17.27;;;15.60;18.70;;;;;;5077023;28;20032;-69
2022/03/10 09:14:37;;;;;;;30.55;16.80;;;14.50;21.30;;;;;;5062321;28;20051;-70
2022/03/10 09:18:03;;;;;;;25.83;16.33;;;14.10;22.00;;;;;;5076032;28;20036;-70
2022/03/10 09:21:28;;;;;;;26.73;17.65;;;14.80;21.50;;;;;;5088795;28;20036;-68
2022/03/10 09:24:53;;;;;;;24.70;16.10;;;13.60;23.50;;;;;;5078099;28;20440;-69
2022/03/10 09:28:18;;;;;;;27.77;16.58;;;14.40;23.50;;;;;;5067121;28;20498;-69
2022/03/10 09:31:44;;;;;;;26.33;17.05;;;14.20;23.50;;;;;;5088700;28;20032;-68
2022/03/10 09:35:09;;;;;;;27.90;17.40;;;13.60;24.50;;;;;;5082580;28;20094;-69
2022/03/10 09:38:34;;;;;;;29.10;19.73;;;13.60;25.00;;;;;;5080803;28;20032;-68
2022/03/10 09:42:00;;;;;;;33.85;21.30;;;12.80;26.40;;;;;;5048241;28;20455;-69
2022/03/10 09:45:25;;;;;;;31.98;19.98;;;12.80;28.00;;;;;;5082381;28;20280;-69
2022/03/10 09:48:50;;;;;;;29.33;18.50;;;13.60;24.30;;;;;;5068088;28;20388;-68
2022/03/10 09:52:16;;;;;;;32.22;19.58;;;14.10;24.20;;;;;;5077147;28;20028;-68
2022/03/10 09:55:41;;;;;;;26.98;17.45;;;13.00;24.40;;;;;;5077146;28;20644;-68
2022/03/10 09:59:07;;;;;;;29.75;19.30;;;13.10;25.60;;;;;;5065912;28;20028;-68
2022/03/10 10:02:32;;;;;;;27.40;18.42;;;13.00;26.60;;;;;;5077234;28;20040;-68
2022/03/10 10:06:04;;;;;;;30.88;18.52;;;13.10;23.80;;;;;;5082780;28;20039;-68
2022/03/10 10:09:30;;;;;;;32.10;17.92;;;12.60;26.10;;;;;;5066871;28;20650;-68
2022/03/10 10:12:54;;;;;;;28.60;17.23;;;12.10;28.00;;;;;;5082157;28;20031;-69
2022/03/10 10:16:21;;;;;;;29.27;17.73;;;11.10;29.50;;;;;;5088145;28;20132;-68
2022/03/10 10:19:45;;;;;;;29.10;17.40;;;11.40;31.90;;;;;;5062656;28;20439;-68
2022/03/10 10:23:10;;;;;;;23.60;16.52;;;11.40;30.80;;;;;;5074743;28;20032;-68
2022/03/10 10:26:39;;;;;;;24.20;16.23;;;11.60;29.40;;;;;;5087844;28;20097;-68
2022/03/10 10:29:47;;;;;;;;;;;10.80;33.30;;;;;;5081314;28;20119;-69
2022/03/10 10:33:12;;;;;;;27.27;17.00;;;10.50;36.10;;;;;;5049803;28;19915;-68
2022/03/10 10:36:50;;;;;;;26.38;16.98;;;10.20;39.20;;;;;;5087907;28;20399;-68
2022/03/10 10:40:15;;;;;;;27.00;15.98;;;9.70;40.80;;;;;;5084399;28;20408;-68
2022/03/10 10:43:46;;;;;;;26.77;16.55;;;9.60;41.20;;;;;;5078816;28;20124;-69
2022/03/10 10:46:29;;;;;;;;;;;9.50;43.90;;;;;;5051567;28;20191;-68
2022/03/10 10:49:55;;;;;;;27.50;17.52;;;9.70;43.80;;;;;;5069742;28;19912;-69
2022/03/10 10:53:20;;;;;;;30.67;18.63;;;9.50;43.90;;;;;;5084023;28;20028;-68
2022/03/10 10:56:46;;;;;;;23.45;16.23;;;9.20;44.90;;;;;;5051268;28;20428;-68
2022/03/10 11:00:23;;;;;;;22.38;15.00;;;8.80;45.60;;;;;;5085725;28;20028;-68
2022/03/10 11:03:48;;;;;;;19.08;13.02;;;8.80;43.50;;;;;;5080299;28;20094;-68
2022/03/10 11:07:14;;;;;;;21.80;15.95;;;9.00;43.00;;;;;;5051342;28;20505;-68
2022/03/10 11:10:39;;;;;;;27.13;15.45;;;9.00;44.40;;;;;;5079762;28;20040;-68
2022/03/10 11:14:04;;;;;;;20.77;13.18;;;9.10;42.30;;;;;;5085577;28;20111;-68
2022/03/10 11:17:30;;;;;;;20.55;12.20;;;9.20;38.60;;;;;;5087446;28;20047;-68
2022/03/10 11:20:55;;;;;;;15.38;10.50;;;9.10;36.10;;;;;;5079829;28;20040;-68
2022/03/10 11:24:19;;;;;;;17.27;11.52;;;9.00;35.80;;;;;;5071179;28;20534;-68
2022/03/10 11:27:16;;;;;;;20.23;12.15;;;8.70;37.30;;;;;;5064514;28;20044;-58
2022/03/10 11:29:45;;;;;;;19.52;12.88;;;8.50;37.80;;;;;;5068988;28;20047;-59
2022/03/10 11:32:11;;;;;;;21.85;13.98;;;8.10;40.40;;;;;;5090836;28;20035;-58
2022/03/10 11:34:52;;;;;;;21.33;13.75;;;8.10;42.10;;;;;;5069690;28;20381;-57
2022/03/10 11:37:43;;;;;;;21.55;13.05;;;8.10;43.50;;;;;;5050623;28;20106;-58
2022/03/10 11:40:12;;;;;;;19.35;13.43;;;8.00;42.90;;;;;;5050525;28;20056;-55
2022/03/10 11:42:38;;;;;;;18.73;12.77;;;7.80;43.40;;;;;;5088347;28;20287;-56
2022/03/10 11:45:27;;;;;;;20.08;13.20;;;7.70;42.80;;;;;;5090926;28;20430;-54
2022/03/10 11:47:53;;;;;;;18.65;12.02;;;7.50;43.90;;;;;;5058109;28;20020;-56
2022/03/10 11:50:24;;;;;;;17.95;12.13;;;7.50;43.20;;;;;;5090686;28;20036;-55
2022/03/10 11:52:58;;;;;;;21.42;13.50;;;7.40;42.40;;;;;;5087605;28;20066;-55
2022/03/10 11:55:51;;;;;;;22.98;13.98;;;7.30;42.80;;;;;;5090414;28;20020;-56
2022/03/10 11:58:29;;;;;;;24.88;14.35;;;7.30;44.60;;;;;;5064321;28;20023;-55
2022/03/10 12:00:57;;;;;;;23.52;14.02;;;7.20;44.30;;;;;;5050566;28;20029;-57
2022/03/10 12:03:30;;;;;;;21.67;14.38;;;7.30;46.20;;;;;;5087635;28;20388;-57
2022/03/10 12:05:57;;;;;;;19.63;13.05;;;7.30;44.00;;;;;;5090131;28;20054;-58
2022/03/10 12:08:31;;;;;;;24.08;13.55;;;7.40;42.70;;;;;;5088068;28;20031;-58
2022/03/10 12:11:01;;;;;;;20.50;12.63;;;7.40;44.50;;;;;;5050218;28;20064;-57
2022/03/10 12:13:28;;;;;;;24.95;14.85;;;7.30;44.90;;;;;;5087419;28;20048;-57
2022/03/10 12:15:55;;;;;;;24.17;14.18;;;7.30;45.60;;;;;;5090188;28;20388;-58
2022/03/10 12:18:24;;;;;;;24.75;15.15;;;7.40;45.30;;;;;;5087825;28;20127;-58
2022/03/10 12:20:53;;;;;;;25.58;14.20;;;7.50;42.70;;;;;;5089894;28;20056;-59
2022/03/10 12:23:22;;;;;;;21.77;13.93;;;7.60;42.20;;;;;;5087916;28;20047;-57
2022/03/10 12:25:54;;;;;;;20.00;12.10;;;7.60;39.80;;;;;;5089990;28;20040;-57
2022/03/10 12:28:21;;;;;;;22.90;13.95;;;7.50;40.50;;;;;;5060823;28;20085;-58
2022/03/10 12:30:47;;;;;;;18.23;12.05;;;7.40;38.40;;;;;;5089798;28;20032;-58
2022/03/10 12:33:13;;;;;;;19.88;11.70;;;7.50;42.50;;;;;;5088065;28;20028;-58
2022/03/10 12:35:41;;;;;;;22.08;12.75;;;7.40;41.30;;;;;;5089663;28;20028;-59
2022/03/10 12:38:08;;;;;;;23.10;14.55;;;7.40;41.90;;;;;;5087548;28;20108;-58
2022/03/10 12:40:36;;;;;;;20.67;12.98;;;7.40;41.50;;;;;;5089854;28;20387;-59
2022/03/10 12:43:08;;;;;;;26.80;13.32;;;7.50;39.10;;;;;;5087376;28;20043;-57
2022/03/10 12:45:45;;;;;;;19.58;12.25;;;7.40;39.00;;;;;;5089718;28;20090;-57
2022/03/10 12:48:18;;;;;;;21.13;12.48;;;7.50;39.10;;;;;;5061556;28;20028;-58
2022/03/10 12:50:45;;;;;;;22.33;12.75;;;7.50;38.40;;;;;;5089699;28;20047;-56
2022/03/10 12:53:12;;;;;;;18.25;11.32;;;7.50;38.90;;;;;;5087097;28;20093;-58
2022/03/10 12:55:37;;;;;;;17.48;10.90;;;7.60;38.70;;;;;;5089582;28;20103;-59
2022/03/10 12:58:03;;;;;;;17.38;11.10;;;7.70;36.90;;;;;;5087177;28;20107;-58
2022/03/10 13:00:28;;;;;;;19.98;11.77;;;7.70;34.60;;;;;;5089410;28;20020;-58
2022/03/10 13:02:56;;;;;;;18.20;11.43;;;7.70;34.80;;;;;;5087077;28;20131;-56
2022/03/10 13:05:22;;;;;;;16.50;10.93;;;7.70;35.70;;;;;;5089269;28;20020;-58
2022/03/10 13:07:48;;;;;;;16.27;10.30;;;7.70;36.00;;;;;;5087196;28;20059;-56
2022/03/10 13:10:17;;;;;;;18.35;12.32;;;7.70;35.60;;;;;;5089318;28;20098;-58
2022/03/10 13:12:45;;;;;;;19.38;11.35;;;7.70;34.30;;;;;;5086828;28;20178;-58
2022/03/10 13:15:21;;;;;;;18.38;11.68;;;7.90;33.70;;;;;;5089240;28;20085;-56
2022/03/10 13:17:47;;;;;;;16.30;11.57;;;7.80;34.40;;;;;;5086834;28;20119;-57
2022/03/10 13:20:20;;;;;;;16.65;10.90;;;7.70;33.10;;;;;;5071352;28;20033;-58
2022/03/10 13:22:51;;;;;;;15.55;10.00;;;7.80;33.70;;;;;;5048850;28;20474;-58
2022/03/10 13:25:18;;;;;;;19.02;10.45;;;7.80;34.00;;;;;;5069804;28;20033;-58
2022/03/10 13:27:46;;;;;;;15.82;10.18;;;7.80;33.00;;;;;;5085297;28;20040;-57
2022/03/10 13:30:26;;;;;;;17.80;11.38;;;7.70;32.50;;;;;;5067626;28;20032;-58
2022/03/10 13:32:54;;;;;;;14.90;9.93;;;7.70;32.80;;;;;;5048856;28;20040;-55
2022/03/10 13:35:23;;;;;;;16.77;9.80;;;7.70;34.20;;;;;;5048987;28;20032;-59
2022/03/10 13:37:50;;;;;;;17.65;10.77;;;7.80;33.00;;;;;;5088462;28;20031;-58
2022/03/10 13:40:17;;;;;;;18.45;10.70;;;7.80;32.70;;;;;;5086973;28;20564;-58
2022/03/10 13:42:49;;;;;;;15.95;10.75;;;7.90;33.00;;;;;;5088779;28;20062;-57
2022/03/10 13:45:15;;;;;;;16.08;10.70;;;7.80;32.00;;;;;;5067160;28;20032;-59
2022/03/10 13:47:50;;;;;;;13.93;9.43;;;7.90;31.70;;;;;;5088254;28;20032;-56
2022/03/10 13:51:15;;;;;;;15.80;10.43;;;7.90;31.70;;;;;;5088609;28;20043;-57
2022/03/10 13:54:40;;;;;;;19.70;11.55;;;7.80;31.20;;;;;;5066140;28;20060;-56
2022/03/10 13:58:05;;;;;;;18.52;10.43;;;7.80;30.30;;;;;;5065425;28;20029;-56
2022/03/10 14:01:31;;;;;;;13.77;8.55;;;7.70;30.90;;;;;;5069305;28;20035;-59
2022/03/10 14:04:56;;;;;;;15.80;10.50;;;7.70;31.80;;;;;;5076158;28;20520;-56
2022/03/10 14:08:35;;;;;;;16.40;10.23;;;7.80;32.30;;;;;;5087265;28;20052;-56